createdAt,value
2019-03-25T00:00:03.255Z,55.30
2019-03-25T00:01:03.194Z,55.51
2019-03-25T00:02:03.170Z,55.00
2019-03-25T00:03:03.165Z,54.46
2019-03-25T00:04:03.164Z,55.07
2019-03-25T00:05:03.152Z,54.66
2019-03-25T00:06:03.160Z,56.00
2019-03-25T00:07:03.124Z,54.69
2019-03-25T00:08:03.121Z,53.83
2019-03-25T00:09:05.531Z,53.42
2019-03-25T00:10:03.091Z,55.18
2019-03-25T00:11:03.136Z,54.35
2019-03-25T00:12:03.061Z,55.69
2019-03-25T00:13:03.049Z,53.22
2019-03-25T00:14:03.050Z,54.46
2019-03-25T00:15:03.033Z,53.11
2019-03-25T00:16:03.104Z,53.53
2019-03-25T00:17:03.010Z,54.04
2019-03-25T00:18:03.018Z,55.07
2019-03-25T00:19:02.998Z,55.20
2019-03-25T00:20:02.974Z,53.83
2019-03-25T00:21:03.006Z,53.94
2019-03-25T00:22:02.961Z,55.62
2019-03-25T00:23:02.937Z,55.72
2019-03-25T00:24:02.929Z,55.38
2019-03-25T00:25:02.921Z,53.96
2019-03-25T00:26:02.983Z,53.94
2019-03-25T00:27:02.897Z,54.17
2019-03-25T00:28:02.901Z,53.24
2019-03-25T00:29:02.890Z,54.17
2019-03-25T00:30:02.865Z,54.06
2019-03-25T00:31:02.877Z,55.10
2019-03-25T00:32:02.836Z,56.21
2019-03-25T00:33:02.870Z,56.23
2019-03-25T00:34:02.819Z,53.86
2019-03-25T00:35:02.807Z,55.62
2019-03-25T00:36:02.810Z,55.41
2019-03-25T00:37:02.856Z,56.65
2019-03-25T00:38:02.778Z,57.17
2019-03-25T00:39:02.759Z,55.41
2019-03-25T00:40:02.754Z,56.44
2019-03-25T00:41:02.761Z,56.85
2019-03-25T00:42:02.732Z,53.86
2019-03-25T00:43:02.722Z,53.45
2019-03-25T00:44:02.705Z,53.22
2019-03-25T00:45:02.713Z,53.14
2019-03-25T00:46:02.687Z,52.93
2019-03-25T00:47:02.751Z,53.53
2019-03-25T00:48:02.667Z,55.41
2019-03-25T00:49:02.648Z,53.03
2019-03-25T00:50:02.648Z,54.48
2019-03-25T00:51:02.652Z,54.77
2019-03-25T00:52:02.630Z,54.90
2019-03-25T00:53:02.611Z,55.30
2019-03-25T00:54:02.603Z,53.83
2019-03-25T00:55:02.612Z,56.23
2019-03-25T00:56:02.604Z,55.62
2019-03-25T00:57:02.598Z,55.30
2019-03-25T00:58:02.554Z,54.79
2019-03-25T00:59:02.547Z,56.03
2019-03-25T01:00:02.538Z,56.23
2019-03-25T01:01:02.527Z,56.65
2019-03-25T01:02:02.551Z,55.41
2019-03-25T01:03:02.500Z,55.00
2019-03-25T01:04:02.482Z,56.23
2019-03-25T01:05:02.475Z,55.41
2019-03-25T01:06:02.461Z,55.41
2019-03-25T01:07:02.474Z,55.10
2019-03-25T01:08:02.438Z,56.85
2019-03-25T01:09:02.430Z,55.00
2019-03-25T01:10:02.438Z,55.00
2019-03-25T01:11:02.445Z,55.43
2019-03-25T01:12:02.416Z,55.30
2019-03-25T01:13:02.416Z,54.79
2019-03-25T01:14:02.378Z,54.06
2019-03-25T01:15:02.370Z,55.41
2019-03-25T01:16:02.369Z,55.02
2019-03-25T01:17:02.370Z,54.48
2019-03-25T01:18:02.338Z,54.48
2019-03-25T01:19:02.314Z,55.13
2019-03-25T01:20:02.336Z,55.54
2019-03-25T01:21:02.306Z,56.05
2019-03-25T01:22:02.317Z,55.43
2019-03-25T01:23:02.280Z,56.05
2019-03-25T01:24:02.269Z,57.70
2019-03-25T01:25:02.841Z,56.88
2019-03-25T01:26:02.286Z,56.05
2019-03-25T01:27:02.268Z,56.46
2019-03-25T01:28:02.216Z,56.57
2019-03-25T01:29:02.210Z,57.63
2019-03-25T01:30:02.211Z,57.21
2019-03-25T01:31:02.194Z,56.29
2019-03-25T01:32:02.203Z,56.90
2019-03-25T01:33:02.163Z,57.01
2019-03-25T01:34:02.164Z,57.53
2019-03-25T01:35:02.172Z,57.32
2019-03-25T01:36:02.142Z,58.04
2019-03-25T01:37:02.123Z,57.73
2019-03-25T01:38:02.125Z,58.25
2019-03-25T01:39:02.133Z,58.04
2019-03-25T01:40:02.091Z,57.94
2019-03-25T01:41:02.078Z,58.25
2019-03-25T01:42:02.079Z,58.66
2019-03-25T01:43:02.069Z,59.39
2019-03-25T01:44:02.059Z,58.38
2019-03-25T01:45:02.041Z,58.17
2019-03-25T01:46:02.029Z,59.20
2019-03-25T01:47:02.022Z,59.31
2019-03-25T01:48:02.024Z,59.55
2019-03-25T01:49:01.983Z,59.00
2019-03-25T01:50:01.981Z,59.62
2019-03-25T01:51:01.962Z,59.23
2019-03-25T01:52:01.957Z,59.55
2019-03-25T01:53:01.948Z,60.27
2019-03-25T01:54:01.959Z,59.34
2019-03-25T01:55:12.702Z,58.72
2019-03-25T01:56:02.948Z,58.72
2019-03-25T01:57:01.955Z,59.95
2019-03-25T01:58:01.882Z,60.37
2019-03-25T01:59:01.891Z,60.37
2019-03-25T02:00:01.879Z,60.58
2019-03-25T02:01:01.891Z,60.58
2019-03-25T02:02:01.868Z,60.30
2019-03-25T02:03:01.834Z,60.47
2019-03-25T02:04:01.853Z,59.78
2019-03-25T02:05:01.821Z,60.30
2019-03-25T02:06:01.794Z,60.71
2019-03-25T02:07:01.782Z,60.60
2019-03-25T02:08:01.776Z,60.91
2019-03-25T02:09:01.786Z,61.54
2019-03-25T02:10:01.757Z,59.99
2019-03-25T02:11:01.785Z,60.30
2019-03-25T02:12:01.730Z,60.71
2019-03-25T02:13:01.721Z,60.01
2019-03-25T02:14:01.729Z,61.22
2019-03-25T02:15:01.699Z,61.25
2019-03-25T02:16:01.749Z,61.25
2019-03-25T02:17:01.685Z,61.25
2019-03-25T02:18:01.659Z,61.25
2019-03-25T02:19:01.665Z,61.46
2019-03-25T02:20:01.665Z,62.29
2019-03-25T02:21:01.653Z,62.29
2019-03-25T02:22:01.618Z,62.52
2019-03-25T02:23:01.808Z,62.94
2019-03-25T02:24:01.609Z,63.01
2019-03-25T02:25:01.611Z,62.52
2019-03-25T02:26:01.572Z,63.74
2019-03-25T02:27:01.569Z,63.64
2019-03-25T02:28:01.583Z,63.04
2019-03-25T02:29:01.545Z,63.15
2019-03-25T02:30:01.548Z,65.01
2019-03-25T02:31:01.517Z,63.87
2019-03-25T02:32:01.505Z,63.76
2019-03-25T02:33:01.505Z,63.97
2019-03-25T02:34:01.520Z,64.49
2019-03-25T02:35:01.491Z,64.59
2019-03-25T02:36:01.480Z,64.90
2019-03-25T02:37:01.500Z,64.49
2019-03-25T02:38:01.441Z,65.11
2019-03-25T02:39:01.438Z,65.42
2019-03-25T02:40:01.473Z,65.01
2019-03-25T02:41:01.409Z,65.22
2019-03-25T02:42:01.494Z,65.42
2019-03-25T02:43:01.437Z,65.32
2019-03-25T02:44:01.371Z,65.01
2019-03-25T02:45:01.387Z,65.42
2019-03-25T02:46:01.372Z,65.01
2019-03-25T02:47:01.340Z,65.22
2019-03-25T02:48:01.336Z,64.07
2019-03-25T02:49:01.326Z,63.25
2019-03-25T02:50:01.349Z,63.35
2019-03-25T02:51:01.322Z,64.28
2019-03-25T02:52:01.289Z,63.35
2019-03-25T02:53:01.273Z,63.35
2019-03-25T02:54:01.261Z,64.07
2019-03-25T02:55:01.253Z,64.00
2019-03-25T02:56:01.246Z,65.01
2019-03-25T02:57:01.255Z,65.32
2019-03-25T02:58:01.224Z,64.59
2019-03-25T02:59:01.234Z,65.11
2019-03-25T03:00:01.201Z,65.87
2019-03-25T03:01:01.209Z,65.53
2019-03-25T03:02:01.198Z,65.14
2019-03-25T03:03:01.186Z,65.77
2019-03-25T03:04:01.207Z,65.97
2019-03-25T03:05:01.149Z,65.66
2019-03-25T03:06:01.131Z,65.66
2019-03-25T03:07:01.157Z,65.77
2019-03-25T03:08:01.131Z,65.25
2019-03-25T03:09:01.103Z,65.97
2019-03-25T03:10:01.114Z,66.90
2019-03-25T03:11:01.112Z,66.80
2019-03-25T03:12:01.091Z,66.59
2019-03-25T03:13:01.058Z,66.38
2019-03-25T03:14:01.042Z,65.56
2019-03-25T03:15:01.044Z,65.14
2019-03-25T03:16:01.036Z,64.94
2019-03-25T03:17:01.038Z,65.25
2019-03-25T03:18:01.004Z,65.35
2019-03-25T03:19:00.991Z,65.56
2019-03-25T03:20:00.986Z,65.45
2019-03-25T03:21:00.973Z,64.94
2019-03-25T03:22:01.076Z,66.28
2019-03-25T03:23:00.957Z,65.66
2019-03-25T03:24:00.935Z,66.59
2019-03-25T03:25:00.931Z,65.59
2019-03-25T03:26:00.929Z,66.52
2019-03-25T03:27:00.920Z,66.62
2019-03-25T03:28:00.898Z,67.03
2019-03-25T03:29:00.881Z,67.45
2019-03-25T03:30:01.059Z,66.93
2019-03-25T03:31:00.957Z,66.93
2019-03-25T03:32:00.865Z,67.55
2019-03-25T03:33:00.862Z,67.45
2019-03-25T03:34:00.831Z,67.76
2019-03-25T03:35:01.114Z,67.35
2019-03-25T03:36:00.809Z,67.97
2019-03-25T03:37:00.811Z,68.18
2019-03-25T03:38:00.800Z,68.90
2019-03-25T03:39:00.782Z,68.49
2019-03-25T03:40:00.767Z,68.18
2019-03-25T03:41:00.788Z,69.32
2019-03-25T03:42:00.761Z,69.32
2019-03-25T03:43:00.759Z,66.93
2019-03-25T03:44:00.988Z,65.59
2019-03-25T03:45:00.716Z,65.69
2019-03-25T03:46:00.701Z,65.59
2019-03-25T03:47:00.693Z,67.35
2019-03-25T03:48:00.674Z,66.52
2019-03-25T03:49:00.688Z,66.75
2019-03-25T03:50:00.656Z,66.93
2019-03-25T03:51:00.645Z,66.96
2019-03-25T03:52:00.640Z,66.96
2019-03-25T03:53:00.650Z,67.07
2019-03-25T03:54:00.615Z,67.07
2019-03-25T03:55:00.611Z,67.58
2019-03-25T03:56:11.941Z,66.65
2019-03-25T03:57:01.598Z,66.96
2019-03-25T03:58:00.590Z,66.58
2019-03-25T03:59:00.578Z,66.65
2019-03-25T04:00:00.750Z,66.86
2019-03-25T04:01:00.547Z,67.20
2019-03-25T04:02:00.523Z,67.58
2019-03-25T04:03:00.546Z,67.38
2019-03-25T04:04:00.501Z,66.96
2019-03-25T04:05:00.611Z,67.79
2019-03-25T04:06:00.547Z,69.17
2019-03-25T04:07:00.473Z,68.44
2019-03-25T04:08:00.489Z,68.03
2019-03-25T04:09:00.453Z,67.61
2019-03-25T04:10:00.453Z,68.00
2019-03-25T04:11:00.431Z,67.58
2019-03-25T04:12:00.418Z,68.31
2019-03-25T04:13:00.418Z,66.86
2019-03-25T04:14:00.410Z,67.38
2019-03-25T04:15:00.465Z,67.10
2019-03-25T04:16:01.664Z,67.90
2019-03-25T04:17:00.363Z,67.20
2019-03-25T04:18:00.367Z,67.30
2019-03-25T04:19:00.357Z,67.93
2019-03-25T04:20:00.515Z,67.61
2019-03-25T04:21:00.325Z,67.41
2019-03-25T04:22:00.321Z,68.96
2019-03-25T04:23:00.297Z,67.41
2019-03-25T04:24:00.330Z,67.41
2019-03-25T04:25:00.366Z,67.82
2019-03-25T04:26:00.294Z,68.24
2019-03-25T04:27:00.260Z,68.24
2019-03-25T04:28:00.265Z,68.13
2019-03-25T04:29:00.249Z,67.20
2019-03-25T04:30:00.335Z,68.65
2019-03-25T04:31:00.228Z,68.65
2019-03-25T04:32:00.199Z,68.86
2019-03-25T04:33:00.199Z,68.65
2019-03-25T04:34:00.194Z,68.55
2019-03-25T04:35:00.325Z,69.17
2019-03-25T04:36:00.160Z,68.59
2019-03-25T04:37:00.151Z,69.17
2019-03-25T04:38:00.141Z,69.31
2019-03-25T04:39:00.152Z,69.42
2019-03-25T04:40:00.200Z,69.93
2019-03-25T04:41:00.123Z,69.83
2019-03-25T04:42:00.107Z,69.10
2019-03-25T04:43:00.085Z,69.00
2019-03-25T04:44:00.068Z,69.52
2019-03-25T04:45:00.077Z,69.62
2019-03-25T04:46:00.056Z,69.73
2019-03-25T04:47:00.041Z,70.04
2019-03-25T04:48:00.032Z,69.62
2019-03-25T04:49:00.024Z,71.31
2019-03-25T04:50:00.045Z,70.48
2019-03-25T04:50:59.992Z,70.97
2019-03-25T04:51:59.994Z,70.69
2019-03-25T04:52:59.974Z,71.39
2019-03-25T04:53:59.986Z,71.73
2019-03-25T04:54:59.952Z,70.90
2019-03-25T04:55:59.964Z,71.52
2019-03-25T04:56:59.929Z,71.42
2019-03-25T04:57:59.928Z,71.42
2019-03-25T04:58:59.908Z,72.04
2019-03-25T04:59:59.936Z,72.04
2019-03-25T05:00:59.893Z,71.21
2019-03-25T05:01:59.906Z,71.00
2019-03-25T05:02:59.868Z,71.73
2019-03-25T05:03:59.862Z,71.83
2019-03-25T05:04:59.852Z,72.04
2019-03-25T05:05:59.854Z,72.35
2019-03-25T05:06:59.879Z,72.45
2019-03-25T05:07:59.821Z,72.14
2019-03-25T05:08:59.837Z,71.83
2019-03-25T05:09:59.815Z,71.83
2019-03-25T05:10:59.796Z,72.04
2019-03-25T05:11:59.769Z,72.14
2019-03-25T05:12:59.759Z,71.73
2019-03-25T05:13:59.745Z,71.62
2019-03-25T05:14:59.751Z,72.04
2019-03-25T05:15:59.739Z,71.62
2019-03-25T05:16:59.729Z,71.39
2019-03-25T05:17:59.736Z,71.21
2019-03-25T05:18:59.702Z,71.94
2019-03-25T05:19:59.684Z,71.39
2019-03-25T05:20:59.701Z,72.35
2019-03-25T05:21:59.673Z,71.91
2019-03-25T05:22:59.648Z,71.94
2019-03-25T05:23:59.637Z,71.70
2019-03-25T05:24:59.627Z,71.00
2019-03-25T05:25:59.655Z,71.80
2019-03-25T05:26:59.605Z,73.05
2019-03-25T05:27:59.625Z,73.57
2019-03-25T05:28:59.595Z,71.59
2019-03-25T05:29:59.582Z,71.56
2019-03-25T05:30:59.560Z,71.28
2019-03-25T05:31:59.577Z,72.11
2019-03-25T05:32:59.544Z,71.70
2019-03-25T05:33:59.537Z,72.80
2019-03-25T05:34:59.554Z,71.77
2019-03-25T05:35:59.542Z,71.66
2019-03-25T05:36:59.496Z,71.66
2019-03-25T05:37:59.494Z,71.45
2019-03-25T05:38:59.474Z,71.56
2019-03-25T05:39:59.480Z,70.73
2019-03-25T05:40:59.474Z,70.83
2019-03-25T05:41:59.460Z,70.83
2019-03-25T05:42:59.452Z,71.66
2019-03-25T05:43:59.423Z,70.73
2019-03-25T05:44:59.410Z,70.59
2019-03-25T05:45:59.396Z,71.94
2019-03-25T05:46:59.407Z,70.59
2019-03-25T05:47:59.377Z,70.70
2019-03-25T05:48:59.372Z,71.45
2019-03-25T05:49:59.352Z,70.73
2019-03-25T05:50:59.353Z,69.56
2019-03-25T05:51:59.349Z,70.39
2019-03-25T05:52:59.333Z,71.42
2019-03-25T05:53:59.314Z,72.05
2019-03-25T05:54:59.295Z,71.22
2019-03-25T05:55:59.293Z,71.91
2019-03-25T05:57:02.646Z,72.11
2019-03-25T05:57:59.303Z,71.73
2019-03-25T05:58:59.268Z,71.28
2019-03-25T05:59:59.264Z,71.84
2019-03-25T06:00:59.231Z,72.11
2019-03-25T06:01:59.240Z,71.80
2019-03-25T06:02:59.221Z,72.53
2019-03-25T06:03:59.200Z,71.70
2019-03-25T06:04:59.211Z,71.91
2019-03-25T06:05:59.177Z,71.59
2019-03-25T06:06:59.189Z,71.36
2019-03-25T06:07:59.167Z,71.46
2019-03-25T06:08:59.144Z,70.63
2019-03-25T06:09:59.134Z,71.15
2019-03-25T06:10:59.126Z,71.88
2019-03-25T06:11:59.112Z,72.50
2019-03-25T06:12:59.127Z,71.67
2019-03-25T06:13:59.118Z,71.46
2019-03-25T06:14:59.111Z,71.77
2019-03-25T06:15:59.067Z,71.46
2019-03-25T06:16:59.063Z,71.67
2019-03-25T06:17:59.060Z,71.12
2019-03-25T06:18:59.043Z,71.43
2019-03-25T06:19:59.026Z,70.91
2019-03-25T06:20:59.011Z,70.50
2019-03-25T06:21:59.010Z,71.01
2019-03-25T06:22:59.045Z,71.84
2019-03-25T06:23:58.979Z,71.33
2019-03-25T06:24:58.975Z,70.70
2019-03-25T06:25:58.969Z,70.50
2019-03-25T06:26:58.962Z,71.22
2019-03-25T06:27:58.955Z,70.29
2019-03-25T06:28:58.951Z,71.22
2019-03-25T06:29:58.926Z,72.15
2019-03-25T06:30:58.923Z,71.12
2019-03-25T06:31:58.913Z,70.91
2019-03-25T06:32:58.918Z,70.29
2019-03-25T06:33:58.870Z,70.50
2019-03-25T06:34:58.856Z,71.84
2019-03-25T06:35:58.851Z,70.36
2019-03-25T06:36:58.834Z,70.29
2019-03-25T06:37:58.862Z,70.60
2019-03-25T06:38:58.834Z,71.12
2019-03-25T06:39:58.801Z,70.57
2019-03-25T06:40:58.789Z,72.15
2019-03-25T06:41:58.782Z,72.98
2019-03-25T06:42:58.775Z,73.77
2019-03-25T06:43:58.777Z,74.40
2019-03-25T06:44:58.760Z,74.40
2019-03-25T06:45:58.750Z,75.43
2019-03-25T06:46:58.739Z,75.43
2019-03-25T06:47:58.717Z,76.15
2019-03-25T06:48:58.726Z,76.26
2019-03-25T06:49:58.692Z,76.88
2019-03-25T06:50:58.680Z,76.67
2019-03-25T06:51:58.680Z,77.09
2019-03-25T06:52:58.666Z,75.32
2019-03-25T06:53:58.675Z,74.91
2019-03-25T06:54:58.644Z,73.88
2019-03-25T06:55:58.648Z,73.57
2019-03-25T06:56:58.615Z,75.53
2019-03-25T06:57:58.611Z,73.88
2019-03-25T06:58:58.636Z,74.40
2019-03-25T06:59:58.592Z,73.36
2019-03-25T07:00:58.572Z,74.77
2019-03-25T07:01:58.577Z,73.02
2019-03-25T07:02:58.551Z,72.29
2019-03-25T07:03:58.555Z,73.22
2019-03-25T07:04:58.580Z,73.22
2019-03-25T07:05:58.550Z,72.50
2019-03-25T07:06:58.565Z,72.91
2019-03-25T07:07:58.512Z,72.26
2019-03-25T07:08:58.501Z,72.91
2019-03-25T07:09:58.518Z,71.53
2019-03-25T07:10:58.489Z,71.95
2019-03-25T07:11:58.454Z,71.64
2019-03-25T07:12:58.442Z,72.85
2019-03-25T07:13:58.451Z,72.16
2019-03-25T07:14:58.443Z,71.84
2019-03-25T07:15:58.423Z,71.71
2019-03-25T07:16:58.434Z,71.37
2019-03-25T07:17:58.443Z,70.47
2019-03-25T07:18:58.384Z,71.40
2019-03-25T07:19:58.383Z,70.57
2019-03-25T07:20:58.394Z,70.64
2019-03-25T07:21:58.346Z,70.54
2019-03-25T07:22:58.339Z,70.54
2019-03-25T07:23:58.332Z,71.26
2019-03-25T07:24:58.344Z,71.57
2019-03-25T07:25:58.328Z,71.47
2019-03-25T07:26:58.307Z,70.64
2019-03-25T07:27:58.283Z,72.40
2019-03-25T07:28:58.327Z,73.02
2019-03-25T07:29:58.269Z,72.09
2019-03-25T07:30:58.274Z,73.54
2019-03-25T07:31:58.236Z,74.43
2019-03-25T07:32:58.227Z,75.09
2019-03-25T07:33:58.220Z,73.74
2019-03-25T07:34:58.215Z,75.19
2019-03-25T07:35:58.219Z,75.29
2019-03-25T07:36:58.211Z,76.94
2019-03-25T07:37:58.180Z,77.87
2019-03-25T07:39:00.156Z,76.64
2019-03-25T07:39:58.186Z,75.70
2019-03-25T07:40:58.170Z,75.39
2019-03-25T07:41:58.130Z,76.73
2019-03-25T07:42:58.217Z,76.01
2019-03-25T07:43:58.106Z,74.57
2019-03-25T07:44:58.102Z,78.28
2019-03-25T07:45:58.085Z,78.80
2019-03-25T07:46:58.116Z,77.46
2019-03-25T07:47:58.072Z,77.15
2019-03-25T07:48:58.052Z,76.53
2019-03-25T07:49:58.035Z,78.08
2019-03-25T07:50:58.027Z,77.77
2019-03-25T07:51:58.034Z,79.83
2019-03-25T07:52:58.015Z,79.32
2019-03-25T07:53:58.007Z,78.28
2019-03-25T07:54:57.988Z,80.56
2019-03-25T07:55:57.984Z,82.52
2019-03-25T07:56:57.986Z,82.83
2019-03-25T07:57:57.985Z,80.35
2019-03-25T07:58:57.951Z,81.38
2019-03-25T07:59:57.956Z,79.94
2019-03-25T08:00:57.922Z,82.97
2019-03-25T08:01:57.932Z,83.39
2019-03-25T08:02:57.906Z,82.66
2019-03-25T08:03:57.887Z,82.35
2019-03-25T08:04:57.897Z,82.15
2019-03-25T08:05:57.886Z,82.10
2019-03-25T08:06:57.845Z,80.87
2019-03-25T08:07:57.860Z,80.18
2019-03-25T08:09:03.829Z,80.39
2019-03-25T08:09:58.847Z,81.11
2019-03-25T08:10:57.817Z,80.39
2019-03-25T08:11:57.825Z,81.73
2019-03-25T08:12:57.837Z,81.63
2019-03-25T08:13:57.783Z,83.80
2019-03-25T08:14:57.818Z,82.00
2019-03-25T08:15:57.766Z,81.11
2019-03-25T08:16:57.735Z,83.18
2019-03-25T08:17:57.753Z,84.38
2019-03-25T08:18:57.737Z,85.04
2019-03-25T08:19:57.711Z,84.17
2019-03-25T08:20:57.718Z,84.48
2019-03-25T08:21:57.683Z,84.38
2019-03-25T08:22:57.689Z,82.31
2019-03-25T08:23:57.678Z,80.56
2019-03-25T08:24:57.650Z,81.49
2019-03-25T08:25:57.650Z,82.48
2019-03-25T08:26:57.625Z,80.73
2019-03-25T08:28:00.375Z,80.93
2019-03-25T08:28:57.609Z,80.79
2019-03-25T08:29:57.600Z,80.79
2019-03-25T08:30:57.583Z,81.10
2019-03-25T08:31:58.959Z,79.97
2019-03-25T08:32:57.652Z,81.10
2019-03-25T08:33:57.548Z,79.25
2019-03-25T08:34:57.548Z,79.86
2019-03-25T08:35:57.530Z,80.38
2019-03-25T08:36:57.509Z,80.48
2019-03-25T08:37:57.524Z,79.86
2019-03-25T08:38:57.488Z,79.04
2019-03-25T08:39:57.485Z,79.55
2019-03-25T08:40:57.466Z,80.48
2019-03-25T08:41:57.465Z,79.55
2019-03-25T08:42:57.467Z,79.66
2019-03-25T08:43:57.466Z,79.21
2019-03-25T08:44:57.425Z,78.80
2019-03-25T08:45:57.421Z,78.18
2019-03-25T08:46:57.399Z,79.83
2019-03-25T08:47:57.390Z,78.69
2019-03-25T08:48:57.407Z,79.31
2019-03-25T08:49:57.446Z,79.00
2019-03-25T08:50:57.357Z,81.58
2019-03-25T08:51:57.351Z,80.93
2019-03-25T08:52:57.345Z,82.16
2019-03-25T08:53:57.341Z,82.23
2019-03-25T08:54:57.320Z,83.36
2019-03-25T08:55:57.302Z,81.16
2019-03-25T08:56:57.300Z,83.49
2019-03-25T08:57:57.281Z,81.63
2019-03-25T08:58:57.311Z,79.68
2019-03-25T08:59:57.799Z,77.58
2019-03-25T09:00:57.284Z,78.20
2019-03-25T09:01:57.239Z,77.07
2019-03-25T09:02:57.251Z,78.82
2019-03-25T09:03:57.240Z,77.62
2019-03-25T09:04:57.205Z,78.20
2019-03-25T09:05:59.353Z,76.76
2019-03-25T09:06:57.189Z,77.48
2019-03-25T09:07:57.174Z,75.01
2019-03-25T09:08:57.189Z,73.68
2019-03-25T09:09:57.168Z,72.64
2019-03-25T09:10:57.150Z,72.85
2019-03-25T09:11:57.128Z,73.57
2019-03-25T09:12:57.118Z,73.98
2019-03-25T09:13:57.127Z,72.13
2019-03-25T09:14:57.114Z,72.51
2019-03-25T09:15:57.080Z,74.57
2019-03-25T09:16:59.896Z,73.50
2019-03-25T09:17:57.070Z,72.27
2019-03-25T09:18:57.061Z,72.61
2019-03-25T09:19:57.062Z,72.27
2019-03-25T09:20:57.031Z,70.42
2019-03-25T09:21:57.019Z,67.21
2019-03-25T09:22:57.042Z,69.13
2019-03-25T09:23:57.016Z,67.56
2019-03-25T09:24:56.986Z,64.89
2019-03-25T09:25:56.999Z,64.59
2019-03-25T09:26:56.974Z,63.87
2019-03-25T09:27:56.960Z,64.86
2019-03-25T09:28:56.948Z,63.02
2019-03-25T09:29:56.943Z,62.10
2019-03-25T09:30:56.932Z,60.86
2019-03-25T09:31:56.904Z,61.71
2019-03-25T09:32:56.911Z,61.69
2019-03-25T09:33:56.888Z,60.86
2019-03-25T09:34:56.903Z,59.74
2019-03-25T09:35:56.951Z,59.81
2019-03-25T09:36:56.855Z,59.09
2019-03-25T09:37:56.846Z,57.79
2019-03-25T09:38:56.834Z,57.38
2019-03-25T09:39:56.834Z,61.48
2019-03-25T09:40:56.808Z,59.50
2019-03-25T09:41:56.798Z,60.40
2019-03-25T09:42:56.793Z,59.38
2019-03-25T09:43:56.789Z,57.92
2019-03-25T09:44:56.785Z,60.55
2019-03-25T09:45:56.749Z,58.20
2019-03-25T09:46:56.750Z,58.70
2019-03-25T09:47:56.728Z,56.43
2019-03-25T09:48:56.726Z,52.75
2019-03-25T09:49:56.743Z,58.65
2019-03-25T09:50:56.716Z,53.34
2019-03-25T09:51:56.696Z,51.78
2019-03-25T09:52:56.673Z,57.50
2019-03-25T09:53:56.684Z,58.11
2019-03-25T09:54:56.651Z,58.60
2019-03-25T09:55:56.678Z,58.47
2019-03-25T09:56:56.652Z,55.41
2019-03-25T09:57:56.629Z,54.87
2019-03-25T09:58:56.611Z,52.81
2019-03-25T09:59:56.596Z,53.22
2019-03-25T10:00:56.608Z,50.48
2019-03-25T10:01:56.586Z,53.11
2019-03-25T10:02:56.577Z,54.33
2019-03-25T10:03:56.555Z,51.89
2019-03-25T10:04:56.550Z,53.42
2019-03-25T10:05:56.554Z,51.28
2019-03-25T10:06:56.546Z,50.15
2019-03-25T10:07:56.521Z,48.44
2019-03-25T10:08:56.505Z,50.79
2019-03-25T10:09:56.497Z,51.32
2019-03-25T10:10:56.493Z,51.93
2019-03-25T10:11:56.484Z,50.63
2019-03-25T10:12:56.886Z,52.67
2019-03-25T10:13:56.455Z,50.45
2019-03-25T10:14:56.439Z,50.76
2019-03-25T10:15:56.419Z,51.29
2019-03-25T10:16:56.429Z,51.12
2019-03-25T10:17:56.401Z,52.65
2019-03-25T10:18:56.395Z,54.72
2019-03-25T10:19:56.386Z,54.85
2019-03-25T10:20:56.370Z,54.54
2019-03-25T10:21:56.393Z,55.90
2019-03-25T10:22:56.345Z,57.74
2019-03-25T10:23:56.366Z,59.09
2019-03-25T10:24:56.322Z,60.12
2019-03-25T10:25:56.321Z,60.05
2019-03-25T10:26:56.327Z,61.48
2019-03-25T10:27:56.316Z,60.58
2019-03-25T10:28:56.280Z,62.87
2019-03-25T10:29:56.275Z,66.16
2019-03-25T10:30:56.260Z,67.41
2019-03-25T10:31:56.277Z,68.88
2019-03-25T10:32:56.240Z,68.61
2019-03-25T10:33:56.227Z,70.49
2019-03-25T10:34:56.234Z,68.64
2019-03-25T10:35:56.215Z,70.39
2019-03-25T10:36:56.212Z,70.11
2019-03-25T10:37:56.200Z,72.06
2019-03-25T10:38:56.195Z,74.40
2019-03-25T10:39:56.160Z,77.75
2019-03-25T10:40:56.158Z,74.57
2019-03-25T10:41:56.241Z,72.27
2019-03-25T10:42:56.140Z,72.55
2019-03-25T10:43:56.116Z,73.47
2019-03-25T10:44:56.113Z,71.83
2019-03-25T10:45:56.105Z,72.68
2019-03-25T10:46:56.086Z,71.93
2019-03-25T10:47:56.090Z,69.98
2019-03-25T10:48:56.064Z,70.94
2019-03-25T10:49:56.063Z,70.90
2019-03-25T10:50:56.071Z,70.73
2019-03-25T10:51:56.031Z,70.60
2019-03-25T10:52:56.036Z,73.06
2019-03-25T10:53:56.023Z,68.44
2019-03-25T10:55:55.990Z,69.33
2019-03-25T10:56:55.976Z,71.15
2019-03-25T10:57:55.996Z,69.30
2019-03-25T10:58:58.301Z,67.25
2019-03-25T10:59:55.956Z,71.11
2019-03-25T11:00:55.927Z,69.75
2019-03-25T11:01:55.949Z,70.87
2019-03-25T11:02:55.906Z,68.73
2019-03-25T11:03:55.913Z,66.75
2019-03-25T11:04:55.891Z,67.57
2019-03-25T11:05:55.894Z,67.26
2019-03-25T11:06:55.865Z,65.72
2019-03-25T11:07:55.887Z,62.17
2019-03-25T11:08:55.878Z,66.16
2019-03-25T11:09:55.836Z,65.65
2019-03-25T11:10:55.868Z,64.83
2019-03-25T11:11:55.806Z,65.96
2019-03-25T11:12:55.812Z,66.37
2019-03-25T11:13:55.808Z,66.98
2019-03-25T11:14:55.793Z,65.55
2019-03-25T11:15:55.784Z,64.83
2019-03-25T11:16:55.763Z,63.40
2019-03-25T11:17:55.741Z,63.94
2019-03-25T11:18:55.734Z,66.74
2019-03-25T11:19:55.733Z,67.25
2019-03-25T11:20:55.729Z,68.21
2019-03-25T11:21:55.704Z,66.87
2019-03-25T11:22:55.698Z,69.95
2019-03-25T11:23:55.689Z,70.15
2019-03-25T11:24:55.677Z,67.11
2019-03-25T11:25:55.681Z,65.98
2019-03-25T11:26:55.641Z,67.52
2019-03-25T11:27:55.634Z,65.77
2019-03-25T11:28:55.659Z,66.80
2019-03-25T11:29:55.621Z,68.75
2019-03-25T11:30:55.605Z,64.75
2019-03-25T11:31:55.614Z,66.83
2019-03-25T11:32:55.639Z,64.06
2019-03-25T11:33:55.591Z,64.98
2019-03-25T11:34:55.579Z,64.98
2019-03-25T11:35:55.559Z,65.73
2019-03-25T11:36:55.534Z,66.96
2019-03-25T11:37:55.516Z,65.32
2019-03-25T11:38:55.520Z,66.35
2019-03-25T11:39:55.517Z,67.38
2019-03-25T11:40:55.541Z,66.45
2019-03-25T11:41:55.496Z,64.70
2019-03-25T11:42:55.471Z,66.45
2019-03-25T11:43:55.450Z,66.45
2019-03-25T11:44:55.459Z,66.45
2019-03-25T11:45:55.450Z,66.55
2019-03-25T11:46:55.424Z,68.02
2019-03-25T11:47:55.413Z,67.99
2019-03-25T11:48:55.421Z,69.26
2019-03-25T11:49:55.406Z,67.41
2019-03-25T11:50:55.376Z,70.49
2019-03-25T11:51:55.370Z,72.85
2019-03-25T11:52:55.350Z,73.19
2019-03-25T11:53:55.361Z,77.17
2019-03-25T11:54:55.347Z,77.27
2019-03-25T11:55:55.344Z,80.21
2019-03-25T11:56:55.319Z,77.00
2019-03-25T11:57:55.304Z,76.28
2019-03-25T11:58:55.287Z,74.66
2019-03-25T11:59:55.291Z,74.15
2019-03-25T12:00:55.271Z,76.07
2019-03-25T12:01:55.252Z,73.40
2019-03-25T12:02:55.244Z,72.55
2019-03-25T12:03:55.238Z,67.11
2019-03-25T12:04:55.272Z,71.69
2019-03-25T12:05:55.254Z,69.68
2019-03-25T12:06:55.201Z,70.87
2019-03-25T12:07:55.185Z,70.84
2019-03-25T12:08:55.182Z,65.69
2019-03-25T12:09:55.176Z,70.40
2019-03-25T12:10:55.175Z,67.50
2019-03-25T12:11:55.147Z,68.22
2019-03-25T12:12:55.147Z,66.86
2019-03-25T12:13:55.138Z,66.45
2019-03-25T12:14:55.114Z,65.70
2019-03-25T12:15:55.124Z,65.70
2019-03-25T12:16:55.115Z,64.75
2019-03-25T12:17:55.082Z,65.47
2019-03-25T12:18:55.074Z,63.73
2019-03-25T12:19:55.081Z,64.14
2019-03-25T12:20:55.046Z,63.43
2019-03-25T12:21:55.116Z,65.44
2019-03-25T12:22:55.049Z,64.62
2019-03-25T12:23:55.014Z,61.97
2019-03-25T12:24:55.001Z,63.47
2019-03-25T12:25:55.031Z,63.43
2019-03-25T12:26:54.981Z,62.07
2019-03-25T12:27:54.985Z,63.09
2019-03-25T12:28:54.970Z,62.04
2019-03-25T12:29:54.952Z,61.22
2019-03-25T12:30:54.962Z,59.80
2019-03-25T12:31:54.934Z,59.80
2019-03-25T12:33:03.591Z,62.45
2019-03-25T12:33:55.920Z,62.96
2019-03-25T12:34:54.892Z,63.03
2019-03-25T12:35:54.897Z,59.46
2019-03-25T12:36:54.887Z,57.42
2019-03-25T12:37:54.874Z,57.12
2019-03-25T12:38:54.851Z,57.32
2019-03-25T12:39:54.835Z,57.42
2019-03-25T12:40:54.844Z,59.05
2019-03-25T12:41:54.848Z,56.60
2019-03-25T12:42:54.812Z,58.51
2019-03-25T12:43:54.796Z,56.27
2019-03-25T12:44:54.790Z,56.17
2019-03-25T12:45:54.781Z,57.26
2019-03-25T12:46:54.774Z,59.43
2019-03-25T12:47:54.756Z,56.04
2019-03-25T12:48:54.736Z,58.28
2019-03-25T12:49:54.744Z,56.76
2019-03-25T12:50:54.713Z,57.85
2019-03-25T12:51:54.721Z,56.83
2019-03-25T12:52:54.692Z,55.91